sensor_id;sensor_type;location;lat;lon;timestamp;P1;durP1;ratioP1;P2;durP2;ratioP2
75062;SDS011;63981;51.052;13.754;2023-04-25T00:02:18;2.50;;;2.00;;
75062;SDS011;63981;51.052;13.754;2023-04-25T00:04:44;2.63;;;2.15;;
75062;SDS011;63981;51.052;13.754;2023-04-25T00:07:11;3.00;;;2.00;;
75062;SDS011;63981;51.052;13.754;2023-04-25T00:09:37;5.75;;;2.42;;
75062;SDS011;63981;51.052;13.754;2023-04-25T00:12:03;2.78;;;2.13;;
75062;SDS011;63981;51.052;13.754;2023-04-25T00:14:29;3.05;;;1.75;;
75062;SDS011;63981;51.052;13.754;2023-04-25T00:16:55;2.85;;;2.15;;
75062;SDS011;63981;51.052;13.754;2023-04-25T00:19:21;3.28;;;1.90;;
75062;SDS011;63981;51.052;13.754;2023-04-25T00:21:47;3.70;;;2.20;;
75062;SDS011;63981;51.052;13.754;2023-04-25T00:24:13;2.95;;;2.00;;
75062;SDS011;63981;51.052;13.754;2023-04-25T00:26:38;3.00;;;1.90;;
75062;SDS011;63981;51.052;13.754;2023-04-25T00:29:04;2.63;;;2.03;;
75062;SDS011;63981;51.052;13.754;2023-04-25T00:31:30;4.13;;;2.30;;
75062;SDS011;63981;51.052;13.754;2023-04-25T00:33:56;2.85;;;1.60;;
75062;SDS011;63981;51.052;13.754;2023-04-25T00:36:21;3.83;;;1.80;;
75062;SDS011;63981;51.052;13.754;2023-04-25T00:42:53;4.70;;;2.70;;
75062;SDS011;63981;51.052;13.754;2023-04-25T00:45:19;2.40;;;1.73;;
75062;SDS011;63981;51.052;13.754;2023-04-25T00:47:45;3.25;;;2.60;;
75062;SDS011;63981;51.052;13.754;2023-04-25T00:50:12;3.40;;;2.13;;
75062;SDS011;63981;51.052;13.754;2023-04-25T00:52:40;3.80;;;2.20;;
75062;SDS011;63981;51.052;13.754;2023-04-25T00:55:09;3.40;;;2.33;;
75062;SDS011;63981;51.052;13.754;2023-04-25T00:57:36;3.20;;;2.35;;
75062;SDS011;63981;51.052;13.754;2023-04-25T01:00:04;3.17;;;2.47;;
75062;SDS011;63981;51.052;13.754;2023-04-25T01:02:32;3.78;;;2.75;;
75062;SDS011;63981;51.052;13.754;2023-04-25T01:04:59;3.92;;;2.67;;
75062;SDS011;63981;51.052;13.754;2023-04-25T01:07:24;4.38;;;2.97;;
75062;SDS011;63981;51.052;13.754;2023-04-25T01:09:51;4.25;;;3.00;;
75062;SDS011;63981;51.052;13.754;2023-04-25T01:12:17;3.35;;;2.97;;
75062;SDS011;63981;51.052;13.754;2023-04-25T01:14:43;4.18;;;2.95;;
75062;SDS011;63981;51.052;13.754;2023-04-25T01:17:10;4.05;;;3.10;;
75062;SDS011;63981;51.052;13.754;2023-04-25T01:19:36;5.65;;;3.88;;
75062;SDS011;63981;51.052;13.754;2023-04-25T01:22:02;4.32;;;3.08;;
75062;SDS011;63981;51.052;13.754;2023-04-25T01:24:30;4.00;;;2.97;;
75062;SDS011;63981;51.052;13.754;2023-04-25T01:26:57;4.60;;;3.05;;
75062;SDS011;63981;51.052;13.754;2023-04-25T01:31:52;3.95;;;3.00;;
75062;SDS011;63981;51.052;13.754;2023-04-25T01:34:18;4.80;;;3.35;;
75062;SDS011;63981;51.052;13.754;2023-04-25T01:36:44;3.47;;;2.70;;
75062;SDS011;63981;51.052;13.754;2023-04-25T01:39:11;4.43;;;3.10;;
75062;SDS011;63981;51.052;13.754;2023-04-25T01:41:37;6.15;;;3.20;;
75062;SDS011;63981;51.052;13.754;2023-04-25T01:44:04;6.15;;;3.13;;
75062;SDS011;63981;51.052;13.754;2023-04-25T01:46:30;6.55;;;3.58;;
75062;SDS011;63981;51.052;13.754;2023-04-25T01:48:56;5.07;;;2.60;;
75062;SDS011;63981;51.052;13.754;2023-04-25T01:51:22;5.85;;;3.25;;
75062;SDS011;63981;51.052;13.754;2023-04-25T01:53:48;4.13;;;3.13;;
75062;SDS011;63981;51.052;13.754;2023-04-25T01:56:14;4.40;;;2.88;;
75062;SDS011;63981;51.052;13.754;2023-04-25T01:58:40;4.70;;;2.90;;
75062;SDS011;63981;51.052;13.754;2023-04-25T02:01:28;5.10;;;2.75;;
75062;SDS011;63981;51.052;13.754;2023-04-25T02:04:11;4.68;;;3.30;;
75062;SDS011;63981;51.052;13.754;2023-04-25T02:06:38;6.18;;;3.17;;
75062;SDS011;63981;51.052;13.754;2023-04-25T02:09:05;5.28;;;3.25;;
75062;SDS011;63981;51.052;13.754;2023-04-25T02:11:31;3.78;;;2.92;;
75062;SDS011;63981;51.052;13.754;2023-04-25T02:14:29;4.85;;;3.10;;
75062;SDS011;63981;51.052;13.754;2023-04-25T02:17:17;5.93;;;4.13;;
75062;SDS011;63981;51.052;13.754;2023-04-25T02:19:44;7.93;;;3.35;;
75062;SDS011;63981;51.052;13.754;2023-04-25T02:22:10;3.88;;;2.60;;
75062;SDS011;63981;51.052;13.754;2023-04-25T02:24:36;6.55;;;3.53;;
75062;SDS011;63981;51.052;13.754;2023-04-25T02:27:02;6.13;;;3.42;;
75062;SDS011;63981;51.052;13.754;2023-04-25T02:29:29;12.40;;;3.78;;
75062;SDS011;63981;51.052;13.754;2023-04-25T02:31:55;6.57;;;3.40;;
75062;SDS011;63981;51.052;13.754;2023-04-25T02:34:20;5.07;;;3.40;;
75062;SDS011;63981;51.052;13.754;2023-04-25T02:36:47;4.45;;;3.90;;
75062;SDS011;63981;51.052;13.754;2023-04-25T02:39:16;4.13;;;3.13;;
75062;SDS011;63981;51.052;13.754;2023-04-25T02:41:43;3.60;;;3.10;;
75062;SDS011;63981;51.052;13.754;2023-04-25T02:44:09;4.70;;;2.72;;
75062;SDS011;63981;51.052;13.754;2023-04-25T02:46:36;6.38;;;3.40;;
75062;SDS011;63981;51.052;13.754;2023-04-25T02:49:02;6.30;;;3.22;;
75062;SDS011;63981;51.052;13.754;2023-04-25T02:51:28;4.28;;;2.92;;
75062;SDS011;63981;51.052;13.754;2023-04-25T02:53:54;4.70;;;3.15;;
75062;SDS011;63981;51.052;13.754;2023-04-25T02:56:19;6.63;;;3.40;;
75062;SDS011;63981;51.052;13.754;2023-04-25T02:58:45;3.72;;;3.03;;
75062;SDS011;63981;51.052;13.754;2023-04-25T03:01:11;4.22;;;3.05;;
75062;SDS011;63981;51.052;13.754;2023-04-25T03:03:37;5.80;;;3.42;;
75062;SDS011;63981;51.052;13.754;2023-04-25T03:06:03;6.72;;;3.38;;
75062;SDS011;63981;51.052;13.754;2023-04-25T03:08:32;4.95;;;2.92;;
75062;SDS011;63981;51.052;13.754;2023-04-25T03:11:01;7.70;;;3.70;;
75062;SDS011;63981;51.052;13.754;2023-04-25T03:13:27;5.55;;;3.30;;
75062;SDS011;63981;51.052;13.754;2023-04-25T03:15:55;3.63;;;2.80;;
75062;SDS011;63981;51.052;13.754;2023-04-25T03:18:21;4.15;;;3.47;;
75062;SDS011;63981;51.052;13.754;2023-04-25T03:20:47;3.80;;;3.25;;
75062;SDS011;63981;51.052;13.754;2023-04-25T03:23:12;4.57;;;3.38;;
75062;SDS011;63981;51.052;13.754;2023-04-25T03:30:32;3.85;;;2.97;;
75062;SDS011;63981;51.052;13.754;2023-04-25T03:32:58;6.38;;;3.97;;
75062;SDS011;63981;51.052;13.754;2023-04-25T03:35:24;8.15;;;4.25;;
75062;SDS011;63981;51.052;13.754;2023-04-25T03:37:50;4.57;;;3.60;;
75062;SDS011;63981;51.052;13.754;2023-04-25T03:40:22;6.63;;;3.67;;
75062;SDS011;63981;51.052;13.754;2023-04-25T03:43:07;5.30;;;3.55;;
75062;SDS011;63981;51.052;13.754;2023-04-25T03:45:33;7.80;;;4.38;;
75062;SDS011;63981;51.052;13.754;2023-04-25T03:47:59;7.05;;;3.95;;
75062;SDS011;63981;51.052;13.754;2023-04-25T03:50:27;4.20;;;3.20;;
75062;SDS011;63981;51.052;13.754;2023-04-25T03:52:53;6.32;;;3.92;;
75062;SDS011;63981;51.052;13.754;2023-04-25T03:55:19;5.95;;;3.45;;
75062;SDS011;63981;51.052;13.754;2023-04-25T03:57:45;6.72;;;4.03;;
75062;SDS011;63981;51.052;13.754;2023-04-25T04:00:11;5.53;;;3.50;;
75062;SDS011;63981;51.052;13.754;2023-04-25T04:02:40;7.28;;;4.22;;
75062;SDS011;63981;51.052;13.754;2023-04-25T04:05:07;5.28;;;3.63;;
75062;SDS011;63981;51.052;13.754;2023-04-25T04:07:36;7.70;;;4.03;;
75062;SDS011;63981;51.052;13.754;2023-04-25T04:10:08;6.03;;;4.40;;
75062;SDS011;63981;51.052;13.754;2023-04-25T04:12:38;8.80;;;4.00;;
75062;SDS011;63981;51.052;13.754;2023-04-25T04:15:05;5.65;;;3.45;;
75062;SDS011;63981;51.052;13.754;2023-04-25T04:17:32;7.25;;;4.25;;
75062;SDS011;63981;51.052;13.754;2023-04-25T04:19:59;6.82;;;4.70;;
75062;SDS011;63981;51.052;13.754;2023-04-25T04:22:25;4.95;;;4.35;;
75062;SDS011;63981;51.052;13.754;2023-04-25T04:24:54;6.13;;;3.83;;
75062;SDS011;63981;51.052;13.754;2023-04-25T04:27:40;6.20;;;3.97;;
75062;SDS011;63981;51.052;13.754;2023-04-25T04:30:23;7.38;;;3.95;;
75062;SDS011;63981;51.052;13.754;2023-04-25T04:32:57;5.28;;;3.95;;
75062;SDS011;63981;51.052;13.754;2023-04-25T04:35:23;6.43;;;4.47;;
75062;SDS011;63981;51.052;13.754;2023-04-25T04:37:50;6.25;;;3.63;;
75062;SDS011;63981;51.052;13.754;2023-04-25T04:40:18;7.78;;;4.30;;
75062;SDS011;63981;51.052;13.754;2023-04-25T04:42:50;5.85;;;3.38;;
75062;SDS011;63981;51.052;13.754;2023-04-25T04:48:13;4.63;;;3.80;;
75062;SDS011;63981;51.052;13.754;2023-04-25T04:51:02;5.68;;;3.92;;
75062;SDS011;63981;51.052;13.754;2023-04-25T04:53:48;5.63;;;4.53;;
75062;SDS011;63981;51.052;13.754;2023-04-25T04:56:22;7.20;;;3.75;;
75062;SDS011;63981;51.052;13.754;2023-04-25T04:59:11;9.35;;;4.70;;
75062;SDS011;63981;51.052;13.754;2023-04-25T05:04:47;6.03;;;4.05;;
75062;SDS011;63981;51.052;13.754;2023-04-25T05:07:32;7.40;;;4.80;;
75062;SDS011;63981;51.052;13.754;2023-04-25T05:10:18;4.85;;;3.47;;
75062;SDS011;63981;51.052;13.754;2023-04-25T05:13:02;4.18;;;3.78;;
75062;SDS011;63981;51.052;13.754;2023-04-25T05:15:28;5.75;;;4.07;;
75062;SDS011;63981;51.052;13.754;2023-04-25T05:18:18;5.45;;;4.03;;
75062;SDS011;63981;51.052;13.754;2023-04-25T05:23:44;7.80;;;4.72;;
75062;SDS011;63981;51.052;13.754;2023-04-25T05:26:29;7.30;;;4.05;;
75062;SDS011;63981;51.052;13.754;2023-04-25T05:29:22;6.15;;;3.83;;
75062;SDS011;63981;51.052;13.754;2023-04-25T05:32:14;6.70;;;3.97;;
75062;SDS011;63981;51.052;13.754;2023-04-25T05:34:39;5.85;;;4.13;;
75062;SDS011;63981;51.052;13.754;2023-04-25T05:37:12;7.38;;;4.07;;
75062;SDS011;63981;51.052;13.754;2023-04-25T05:39:49;6.28;;;4.18;;
75062;SDS011;63981;51.052;13.754;2023-04-25T05:42:50;5.50;;;3.80;;
75062;SDS011;63981;51.052;13.754;2023-04-25T05:45:41;5.78;;;3.67;;
75062;SDS011;63981;51.052;13.754;2023-04-25T05:48:30;6.53;;;4.18;;
75062;SDS011;63981;51.052;13.754;2023-04-25T05:51:05;15.40;;;4.70;;
75062;SDS011;63981;51.052;13.754;2023-04-25T05:54:00;8.45;;;4.40;;
75062;SDS011;63981;51.052;13.754;2023-04-25T05:56:26;5.85;;;4.50;;
75062;SDS011;63981;51.052;13.754;2023-04-25T05:58:54;6.82;;;4.15;;
75062;SDS011;63981;51.052;13.754;2023-04-25T06:01:21;8.38;;;4.28;;
75062;SDS011;63981;51.052;13.754;2023-04-25T06:03:47;6.50;;;4.47;;
75062;SDS011;63981;51.052;13.754;2023-04-25T06:06:13;8.27;;;3.90;;
75062;SDS011;63981;51.052;13.754;2023-04-25T06:08:40;6.15;;;3.92;;
75062;SDS011;63981;51.052;13.754;2023-04-25T06:11:06;5.93;;;4.43;;
75062;SDS011;63981;51.052;13.754;2023-04-25T06:13:32;7.80;;;3.97;;
75062;SDS011;63981;51.052;13.754;2023-04-25T06:15:58;8.15;;;4.38;;
75062;SDS011;63981;51.052;13.754;2023-04-25T06:18:25;7.15;;;4.10;;
75062;SDS011;63981;51.052;13.754;2023-04-25T06:20:50;8.25;;;4.60;;
75062;SDS011;63981;51.052;13.754;2023-04-25T06:23:17;7.50;;;4.90;;
75062;SDS011;63981;51.052;13.754;2023-04-25T06:25:52;7.82;;;4.78;;
75062;SDS011;63981;51.052;13.754;2023-04-25T06:28:18;9.95;;;5.07;;
75062;SDS011;63981;51.052;13.754;2023-04-25T06:30:44;7.50;;;4.35;;
75062;SDS011;63981;51.052;13.754;2023-04-25T06:33:13;5.88;;;4.20;;
75062;SDS011;63981;51.052;13.754;2023-04-25T06:35:40;10.40;;;4.57;;
75062;SDS011;63981;51.052;13.754;2023-04-25T06:38:09;10.85;;;4.63;;
75062;SDS011;63981;51.052;13.754;2023-04-25T06:40:37;6.55;;;3.65;;
75062;SDS011;63981;51.052;13.754;2023-04-25T06:43:03;8.48;;;4.22;;
75062;SDS011;63981;51.052;13.754;2023-04-25T06:45:55;5.72;;;4.00;;
75062;SDS011;63981;51.052;13.754;2023-04-25T06:48:24;5.70;;;4.05;;
75062;SDS011;63981;51.052;13.754;2023-04-25T06:50:51;5.93;;;3.50;;
75062;SDS011;63981;51.052;13.754;2023-04-25T06:53:17;7.45;;;3.78;;
75062;SDS011;63981;51.052;13.754;2023-04-25T06:55:47;7.80;;;4.00;;
75062;SDS011;63981;51.052;13.754;2023-04-25T06:58:21;6.68;;;3.67;;
75062;SDS011;63981;51.052;13.754;2023-04-25T07:01:01;7.60;;;4.22;;
75062;SDS011;63981;51.052;13.754;2023-04-25T07:03:27;7.05;;;3.97;;
75062;SDS011;63981;51.052;13.754;2023-04-25T07:05:58;7.88;;;3.65;;
75062;SDS011;63981;51.052;13.754;2023-04-25T07:08:24;5.82;;;3.60;;
75062;SDS011;63981;51.052;13.754;2023-04-25T07:10:50;7.50;;;4.10;;
75062;SDS011;63981;51.052;13.754;2023-04-25T07:13:15;8.00;;;3.70;;
75062;SDS011;63981;51.052;13.754;2023-04-25T07:15:41;9.98;;;4.57;;
75062;SDS011;63981;51.052;13.754;2023-04-25T07:18:08;9.85;;;4.40;;
75062;SDS011;63981;51.052;13.754;2023-04-25T07:20:33;7.18;;;4.43;;
75062;SDS011;63981;51.052;13.754;2023-04-25T07:23:01;6.10;;;3.17;;
75062;SDS011;63981;51.052;13.754;2023-04-25T07:25:27;8.18;;;4.70;;
75062;SDS011;63981;51.052;13.754;2023-04-25T07:27:53;7.57;;;4.22;;
75062;SDS011;63981;51.052;13.754;2023-04-25T07:30:20;6.40;;;3.28;;
75062;SDS011;63981;51.052;13.754;2023-04-25T07:32:46;10.50;;;3.72;;
75062;SDS011;63981;51.052;13.754;2023-04-25T07:35:12;6.65;;;3.50;;
75062;SDS011;63981;51.052;13.754;2023-04-25T07:37:38;4.63;;;3.35;;
75062;SDS011;63981;51.052;13.754;2023-04-25T07:40:14;5.78;;;3.50;;
75062;SDS011;63981;51.052;13.754;2023-04-25T07:42:45;5.95;;;3.70;;
75062;SDS011;63981;51.052;13.754;2023-04-25T07:45:15;5.03;;;3.65;;
75062;SDS011;63981;51.052;13.754;2023-04-25T07:47:41;6.18;;;3.47;;
75062;SDS011;63981;51.052;13.754;2023-04-25T07:50:08;4.90;;;3.17;;
75062;SDS011;63981;51.052;13.754;2023-04-25T07:52:34;6.78;;;3.22;;
75062;SDS011;63981;51.052;13.754;2023-04-25T07:55:07;5.05;;;2.95;;
75062;SDS011;63981;51.052;13.754;2023-04-25T07:57:43;3.85;;;2.28;;
75062;SDS011;63981;51.052;13.754;2023-04-25T08:00:09;6.65;;;2.80;;
75062;SDS011;63981;51.052;13.754;2023-04-25T08:02:39;4.72;;;3.05;;
75062;SDS011;63981;51.052;13.754;2023-04-25T08:05:09;5.53;;;3.05;;
75062;SDS011;63981;51.052;13.754;2023-04-25T08:07:39;2.67;;;2.20;;
75062;SDS011;63981;51.052;13.754;2023-04-25T08:10:06;3.95;;;2.22;;
75062;SDS011;63981;51.052;13.754;2023-04-25T08:12:33;4.57;;;2.30;;
75062;SDS011;63981;51.052;13.754;2023-04-25T08:14:59;4.15;;;2.50;;
75062;SDS011;63981;51.052;13.754;2023-04-25T08:17:30;5.18;;;2.15;;
75062;SDS011;63981;51.052;13.754;2023-04-25T08:19:56;6.72;;;2.50;;
75062;SDS011;63981;51.052;13.754;2023-04-25T08:22:28;2.33;;;1.85;;
75062;SDS011;63981;51.052;13.754;2023-04-25T08:25:15;8.85;;;3.58;;
75062;SDS011;63981;51.052;13.754;2023-04-25T08:27:42;7.07;;;3.65;;
75062;SDS011;63981;51.052;13.754;2023-04-25T08:30:09;6.10;;;2.47;;
75062;SDS011;63981;51.052;13.754;2023-04-25T08:32:37;4.68;;;2.30;;
75062;SDS011;63981;51.052;13.754;2023-04-25T08:35:25;3.15;;;2.05;;
75062;SDS011;63981;51.052;13.754;2023-04-25T08:37:51;5.30;;;3.05;;
75062;SDS011;63981;51.052;13.754;2023-04-25T08:40:18;5.63;;;2.70;;
75062;SDS011;63981;51.052;13.754;2023-04-25T08:42:59;3.83;;;2.45;;
75062;SDS011;63981;51.052;13.754;2023-04-25T08:45:28;3.33;;;2.20;;
75062;SDS011;63981;51.052;13.754;2023-04-25T08:47:57;2.33;;;2.13;;
75062;SDS011;63981;51.052;13.754;2023-04-25T08:50:24;6.05;;;3.00;;
75062;SDS011;63981;51.052;13.754;2023-04-25T08:55:20;4.45;;;2.42;;
75062;SDS011;63981;51.052;13.754;2023-04-25T08:57:50;4.90;;;2.90;;
75062;SDS011;63981;51.052;13.754;2023-04-25T09:00:17;3.38;;;2.75;;
75062;SDS011;63981;51.052;13.754;2023-04-25T09:02:45;3.00;;;2.70;;
75062;SDS011;63981;51.052;13.754;2023-04-25T09:05:12;5.05;;;3.05;;
75062;SDS011;63981;51.052;13.754;2023-04-25T09:07:39;4.78;;;2.72;;
75062;SDS011;63981;51.052;13.754;2023-04-25T09:10:05;4.90;;;3.00;;
75062;SDS011;63981;51.052;13.754;2023-04-25T09:12:35;3.95;;;3.15;;
75062;SDS011;63981;51.052;13.754;2023-04-25T09:15:08;5.18;;;3.08;;
75062;SDS011;63981;51.052;13.754;2023-04-25T09:17:57;5.03;;;3.00;;
75062;SDS011;63981;51.052;13.754;2023-04-25T09:20:27;7.18;;;3.22;;
75062;SDS011;63981;51.052;13.754;2023-04-25T09:23:03;5.57;;;3.30;;
75062;SDS011;63981;51.052;13.754;2023-04-25T09:25:36;6.50;;;3.85;;
75062;SDS011;63981;51.052;13.754;2023-04-25T09:28:05;6.03;;;3.40;;
75062;SDS011;63981;51.052;13.754;2023-04-25T09:30:33;6.60;;;3.72;;
75062;SDS011;63981;51.052;13.754;2023-04-25T09:33:09;7.43;;;3.45;;
75062;SDS011;63981;51.052;13.754;2023-04-25T09:35:37;3.95;;;3.08;;
75062;SDS011;63981;51.052;13.754;2023-04-25T09:38:13;5.57;;;3.17;;
75062;SDS011;63981;51.052;13.754;2023-04-25T09:40:54;6.40;;;3.65;;
75062;SDS011;63981;51.052;13.754;2023-04-25T09:43:34;4.05;;;3.60;;
75062;SDS011;63981;51.052;13.754;2023-04-25T09:46:00;5.25;;;3.38;;
75062;SDS011;63981;51.052;13.754;2023-04-25T09:48:28;5.07;;;3.45;;
75062;SDS011;63981;51.052;13.754;2023-04-25T09:53:37;5.47;;;3.90;;
75062;SDS011;63981;51.052;13.754;2023-04-25T09:56:12;3.88;;;3.47;;
75062;SDS011;63981;51.052;13.754;2023-04-25T09:58:40;5.28;;;3.33;;
75062;SDS011;63981;51.052;13.754;2023-04-25T10:01:07;4.93;;;4.43;;
75062;SDS011;63981;51.052;13.754;2023-04-25T10:03:44;8.88;;;4.43;;
75062;SDS011;63981;51.052;13.754;2023-04-25T10:06:49;5.60;;;3.97;;
75062;SDS011;63981;51.052;13.754;2023-04-25T10:11:46;7.13;;;3.95;;
75062;SDS011;63981;51.052;13.754;2023-04-25T10:14:13;7.85;;;3.42;;
75062;SDS011;63981;51.052;13.754;2023-04-25T10:16:39;5.53;;;3.35;;
75062;SDS011;63981;51.052;13.754;2023-04-25T10:19:07;3.20;;;2.63;;
75062;SDS011;63981;51.052;13.754;2023-04-25T10:21:32;4.53;;;3.20;;
75062;SDS011;63981;51.052;13.754;2023-04-25T10:24:00;4.07;;;3.05;;
75062;SDS011;63981;51.052;13.754;2023-04-25T10:26:27;4.47;;;2.92;;
75062;SDS011;63981;51.052;13.754;2023-04-25T10:28:57;6.22;;;3.35;;
75062;SDS011;63981;51.052;13.754;2023-04-25T10:31:24;4.00;;;2.90;;
75062;SDS011;63981;51.052;13.754;2023-04-25T10:33:51;7.50;;;3.53;;
75062;SDS011;63981;51.052;13.754;2023-04-25T10:36:17;6.95;;;3.45;;
75062;SDS011;63981;51.052;13.754;2023-04-25T10:38:45;4.78;;;1.98;;
75062;SDS011;63981;51.052;13.754;2023-04-25T10:41:12;7.07;;;3.05;;
75062;SDS011;63981;51.052;13.754;2023-04-25T10:46:24;4.32;;;2.60;;
75062;SDS011;63981;51.052;13.754;2023-04-25T10:48:53;4.57;;;3.25;;
75062;SDS011;63981;51.052;13.754;2023-04-25T10:56:22;5.75;;;3.67;;
75062;SDS011;63981;51.052;13.754;2023-04-25T10:58:50;4.40;;;3.10;;
75062;SDS011;63981;51.052;13.754;2023-04-25T11:01:20;5.75;;;3.20;;
75062;SDS011;63981;51.052;13.754;2023-04-25T11:03:47;4.07;;;3.20;;
75062;SDS011;63981;51.052;13.754;2023-04-25T11:06:29;6.03;;;3.50;;
75062;SDS011;63981;51.052;13.754;2023-04-25T11:09:03;7.03;;;4.10;;
75062;SDS011;63981;51.052;13.754;2023-04-25T11:11:37;9.65;;;3.78;;
75062;SDS011;63981;51.052;13.754;2023-04-25T11:14:03;8.20;;;4.68;;
75062;SDS011;63981;51.052;13.754;2023-04-25T11:16:29;6.93;;;4.20;;
75062;SDS011;63981;51.052;13.754;2023-04-25T11:18:59;8.57;;;4.07;;
75062;SDS011;63981;51.052;13.754;2023-04-25T11:21:25;6.93;;;3.22;;
75062;SDS011;63981;51.052;13.754;2023-04-25T11:23:54;6.93;;;3.50;;
75062;SDS011;63981;51.052;13.754;2023-04-25T11:26:21;8.88;;;3.60;;
75062;SDS011;63981;51.052;13.754;2023-04-25T11:28:48;6.57;;;3.53;;
75062;SDS011;63981;51.052;13.754;2023-04-25T11:31:14;12.77;;;3.90;;
75062;SDS011;63981;51.052;13.754;2023-04-25T11:33:40;8.30;;;3.20;;
75062;SDS011;63981;51.052;13.754;2023-04-25T11:36:07;6.18;;;2.50;;
75062;SDS011;63981;51.052;13.754;2023-04-25T11:38:33;5.10;;;2.38;;
75062;SDS011;63981;51.052;13.754;2023-04-25T11:40:59;5.00;;;1.83;;
75062;SDS011;63981;51.052;13.754;2023-04-25T11:43:25;3.83;;;1.90;;
75062;SDS011;63981;51.052;13.754;2023-04-25T11:45:51;3.28;;;1.77;;
75062;SDS011;63981;51.052;13.754;2023-04-25T11:48:18;2.92;;;1.70;;
75062;SDS011;63981;51.052;13.754;2023-04-25T11:50:44;3.20;;;1.67;;
75062;SDS011;63981;51.052;13.754;2023-04-25T11:53:11;4.38;;;1.80;;
75062;SDS011;63981;51.052;13.754;2023-04-25T11:55:40;2.88;;;1.30;;
75062;SDS011;63981;51.052;13.754;2023-04-25T11:58:06;4.10;;;1.70;;
75062;SDS011;63981;51.052;13.754;2023-04-25T12:00:32;9.25;;;2.15;;
75062;SDS011;63981;51.052;13.754;2023-04-25T12:02:58;4.13;;;1.38;;
75062;SDS011;63981;51.052;13.754;2023-04-25T12:05:25;4.43;;;1.58;;
75062;SDS011;63981;51.052;13.754;2023-04-25T12:07:52;3.05;;;1.75;;
75062;SDS011;63981;51.052;13.754;2023-04-25T12:10:19;5.53;;;1.70;;
75062;SDS011;63981;51.052;13.754;2023-04-25T12:12:45;6.18;;;2.22;;
75062;SDS011;63981;51.052;13.754;2023-04-25T12:15:13;5.15;;;1.83;;
75062;SDS011;63981;51.052;13.754;2023-04-25T12:17:50;3.42;;;1.67;;
75062;SDS011;63981;51.052;13.754;2023-04-25T12:20:18;4.28;;;1.50;;
75062;SDS011;63981;51.052;13.754;2023-04-25T12:22:48;5.60;;;1.98;;
75062;SDS011;63981;51.052;13.754;2023-04-25T12:25:33;5.13;;;2.05;;
75062;SDS011;63981;51.052;13.754;2023-04-25T12:31:03;8.32;;;2.22;;
75062;SDS011;63981;51.052;13.754;2023-04-25T12:33:31;5.43;;;1.77;;
75062;SDS011;63981;51.052;13.754;2023-04-25T12:35:58;8.98;;;2.08;;
75062;SDS011;63981;51.052;13.754;2023-04-25T12:38:28;5.57;;;2.08;;
75062;SDS011;63981;51.052;13.754;2023-04-25T12:41:01;7.68;;;2.45;;
75062;SDS011;63981;51.052;13.754;2023-04-25T12:43:26;8.88;;;2.33;;
75062;SDS011;63981;51.052;13.754;2023-04-25T12:45:53;7.15;;;2.55;;
75062;SDS011;63981;51.052;13.754;2023-04-25T12:48:20;4.00;;;2.30;;
75062;SDS011;63981;51.052;13.754;2023-04-25T12:50:47;7.72;;;1.88;;
75062;SDS011;63981;51.052;13.754;2023-04-25T12:53:17;5.55;;;2.13;;
75062;SDS011;63981;51.052;13.754;2023-04-25T12:55:45;5.82;;;2.30;;
75062;SDS011;63981;51.052;13.754;2023-04-25T12:58:14;6.50;;;2.50;;
75062;SDS011;63981;51.052;13.754;2023-04-25T13:00:43;9.60;;;2.38;;
75062;SDS011;63981;51.052;13.754;2023-04-25T13:03:10;11.57;;;2.83;;
75062;SDS011;63981;51.052;13.754;2023-04-25T13:05:37;7.05;;;2.60;;
75062;SDS011;63981;51.052;13.754;2023-04-25T13:08:03;11.63;;;3.63;;
75062;SDS011;63981;51.052;13.754;2023-04-25T13:10:29;6.60;;;2.95;;
75062;SDS011;63981;51.052;13.754;2023-04-25T13:12:55;6.25;;;2.70;;
75062;SDS011;63981;51.052;13.754;2023-04-25T13:15:21;7.03;;;3.00;;
75062;SDS011;63981;51.052;13.754;2023-04-25T13:17:47;6.60;;;2.95;;
75062;SDS011;63981;51.052;13.754;2023-04-25T13:20:13;7.50;;;3.00;;
75062;SDS011;63981;51.052;13.754;2023-04-25T13:22:40;8.65;;;2.90;;
75062;SDS011;63981;51.052;13.754;2023-04-25T13:25:08;7.45;;;3.17;;
75062;SDS011;63981;51.052;13.754;2023-04-25T13:27:35;9.63;;;3.55;;
75062;SDS011;63981;51.052;13.754;2023-04-25T13:32:33;9.65;;;3.20;;
75062;SDS011;63981;51.052;13.754;2023-04-25T13:35:01;9.88;;;3.75;;
75062;SDS011;63981;51.052;13.754;2023-04-25T13:37:28;10.52;;;3.53;;
75062;SDS011;63981;51.052;13.754;2023-04-25T13:39:55;11.20;;;3.75;;
75062;SDS011;63981;51.052;13.754;2023-04-25T13:42:22;11.40;;;3.63;;
75062;SDS011;63981;51.052;13.754;2023-04-25T13:44:48;8.65;;;3.05;;
75062;SDS011;63981;51.052;13.754;2023-04-25T13:47:14;7.43;;;2.55;;
75062;SDS011;63981;51.052;13.754;2023-04-25T13:49:40;7.50;;;2.88;;
75062;SDS011;63981;51.052;13.754;2023-04-25T13:52:06;7.45;;;2.85;;
75062;SDS011;63981;51.052;13.754;2023-04-25T13:54:31;8.38;;;3.58;;
75062;SDS011;63981;51.052;13.754;2023-04-25T13:56:57;9.80;;;2.90;;
75062;SDS011;63981;51.052;13.754;2023-04-25T13:59:24;6.97;;;3.35;;
75062;SDS011;63981;51.052;13.754;2023-04-25T14:01:53;6.65;;;2.80;;
75062;SDS011;63981;51.052;13.754;2023-04-25T14:04:19;5.00;;;2.17;;
75062;SDS011;63981;51.052;13.754;2023-04-25T14:06:45;4.22;;;2.38;;
75062;SDS011;63981;51.052;13.754;2023-04-25T14:09:10;7.13;;;2.60;;
75062;SDS011;63981;51.052;13.754;2023-04-25T14:11:37;8.75;;;3.25;;
75062;SDS011;63981;51.052;13.754;2023-04-25T14:14:03;6.88;;;3.10;;
75062;SDS011;63981;51.052;13.754;2023-04-25T14:16:29;6.30;;;2.70;;
75062;SDS011;63981;51.052;13.754;2023-04-25T14:18:55;9.45;;;3.00;;
75062;SDS011;63981;51.052;13.754;2023-04-25T14:21:21;7.30;;;2.95;;
75062;SDS011;63981;51.052;13.754;2023-04-25T14:23:47;5.82;;;2.88;;
75062;SDS011;63981;51.052;13.754;2023-04-25T14:26:12;7.57;;;2.70;;
75062;SDS011;63981;51.052;13.754;2023-04-25T14:28:38;5.97;;;2.80;;
75062;SDS011;63981;51.052;13.754;2023-04-25T14:31:04;7.60;;;3.30;;
75062;SDS011;63981;51.052;13.754;2023-04-25T14:33:30;8.43;;;3.38;;
75062;SDS011;63981;51.052;13.754;2023-04-25T14:35:56;8.15;;;2.80;;
75062;SDS011;63981;51.052;13.754;2023-04-25T14:38:22;9.07;;;3.42;;
75062;SDS011;63981;51.052;13.754;2023-04-25T14:40:50;10.38;;;2.88;;
75062;SDS011;63981;51.052;13.754;2023-04-25T14:43:16;7.18;;;2.72;;
75062;SDS011;63981;51.052;13.754;2023-04-25T14:45:41;8.38;;;3.33;;
75062;SDS011;63981;51.052;13.754;2023-04-25T14:48:07;17.45;;;3.20;;
75062;SDS011;63981;51.052;13.754;2023-04-25T14:50:33;8.52;;;2.97;;
75062;SDS011;63981;51.052;13.754;2023-04-25T14:52:59;7.57;;;3.00;;
75062;SDS011;63981;51.052;13.754;2023-04-25T14:55:26;7.35;;;2.67;;
75062;SDS011;63981;51.052;13.754;2023-04-25T14:57:55;6.25;;;3.00;;
75062;SDS011;63981;51.052;13.754;2023-04-25T15:00:25;8.30;;;3.15;;
75062;SDS011;63981;51.052;13.754;2023-04-25T15:02:52;7.50;;;3.13;;
75062;SDS011;63981;51.052;13.754;2023-04-25T15:05:17;6.85;;;2.75;;
75062;SDS011;63981;51.052;13.754;2023-04-25T15:07:43;6.50;;;2.85;;
75062;SDS011;63981;51.052;13.754;2023-04-25T15:10:09;5.60;;;2.63;;
75062;SDS011;63981;51.052;13.754;2023-04-25T15:12:41;9.95;;;2.67;;
75062;SDS011;63981;51.052;13.754;2023-04-25T15:15:08;7.78;;;2.33;;
75062;SDS011;63981;51.052;13.754;2023-04-25T15:17:43;5.78;;;2.33;;
75062;SDS011;63981;51.052;13.754;2023-04-25T15:20:10;5.65;;;2.17;;
75062;SDS011;63981;51.052;13.754;2023-04-25T15:22:38;5.88;;;1.92;;
75062;SDS011;63981;51.052;13.754;2023-04-25T15:25:05;7.47;;;2.13;;
75062;SDS011;63981;51.052;13.754;2023-04-25T15:27:36;5.57;;;1.73;;